< < Back
Terminal Aerodrome Forecast


Current Version              Previous Versions:   1  2  3  4  5  6  7  8  9  

Terminal Aerodrome Forecast

318
FTUS42 KFFC 241100
TAFATL
TAF
KATL 241123Z 2412/2518 04005KT P6SM FEW150 BKN250
     FM241600 VRB03KT P6SM SCT150
     FM242000 VRB03KT P6SM SCT150
     FM250000 33005KT P6SM SKC=

Latest METAR

295
SAUS70 KWBC 241600 RRD
MTRATL
METAR KATL 241552Z 00000KT 10SM FEW150 SCT180 SCT250 19/09 A3007 RMK AO2
SLP178 T01890089


USA.gov is the U.S. government's official web portal to all federal, state and local government web resources and services.